Crosby, Texas
Current Conditions -  °F | °C
As of 1:53 PM on Saturday 20 Dec 2014 (Local Time) from KIAH Reporting Station
Overcast Overcast  
Wind Chill: 53°   Ceiling: 1000
Heat Index: 53°   Visibility: 10mi
Dew Point: 49°   Wind: 9mph
Humidity: 86%   Direction: 30°NNE
Pressure: 30.17"   Gusts: NA
Location:  29.91°N, 95.07°W
Report Text: KIAH 201953Z 03008KT 10SM BKN010 OVC014 12/09 A3017 RMK AO2 SLP216 T01170094
Loading
Personal Weather Stations






























Interactive Weather Map New forecast layout! Learn more

10-Day Weather Forecast

Advertisements
Track Severe Weather on mobile